Duluth, MN

8:22 AM CST on November 26, 2014 (GMT -0600)
Duluth International | Change Station
CLOSE
Current Station
Airport
Location: Duluth,
Elevation: 1427 ft
Nearby Weather Stations

Elev 1427 ft 46.84 °N, 92.19 °W | Updated 9 minutes ago

Overcast
Overcast
18 °F
Feels Like 8 °F
N
8
Wind Variable Wind from North

Today
High -- | Low -- °F
--% Chance of Precip.
Yesterday
High -- | Low -- °F
Precip. -- in
7:26 AM 4:24 PM
Waxing Crescent, 20% visible
Pressure 30.11 in
Visibility 1.8 miles
Clouds Mostly Cloudy 3700 ft
Mostly Cloudy 4500 ft
Overcast 6500 ft
Windchill 8 °F
Dew Point 12 °F
Humidity 78%
Rainfall 0.01 in
Snow Depth Not available.
UV 0 out of 12
Pollen .10 out of 12
Air Quality Not available.
Flu Activity Not available.
SPECI KDLH 261413Z 36007KT 1 3/4SM -SN BKN037 BKN045 OVC065 M08/M11 A3011 RMK AO2 P0000 T10781111

More Conditions Fewer Conditions

Pressure 30.11 in
Visibility 1.8 miles
Clouds Mostly Cloudy 3700 ft
Mostly Cloudy 4500 ft
Overcast 6500 ft
Windchill 8 °F
Dew Point 12 °F
Humidity 78%
Rainfall 0.01 in
Snow Depth Not available.
UV 0 out of 12
Pollen .10 out of 12
Air Quality Not available.
Flu Activity Not available.
SPECI KDLH 261413Z 36007KT 1 3/4SM -SN BKN037 BKN045 OVC065 M08/M11 A3011 RMK AO2 P0000 T10781111

More Conditions Fewer Conditions

10-Day Weather Forecast

Almanac

Astronomy

Nov. 26, 2014 Rise Set
Actual Time
Civil Twilight
Nautical Twilight
Astronomical Twilight
Moon
Length of Visible Light
Length of Day
Tomorrow will be .
, % of the Moon is Illuminated

Today's Extremes

State Highs State Lows

Community

WunderPhotos

Upload Photos

1,773,752 photos uploaded!

WunderBlogs® & News

Nearby

Air Quality

  Air Quality AQ Index Pollutant
Not available.

Snow Depth

Station Depth Elevation

Earthquake Activity

City Distance Mag. Time & Date
Minimum magnitude displayed is 2.5.

Coastal Water Temperatures

Place Temperature

Nearby Weather Stations